Time;durP1;ratioP1;P1;durP2;ratioP2;P2;SDS_P1;SDS_P2;PMS_P1;PMS_P2;Temp;Humidity;BMP_temperature;BMP_pressure;BME280_temperature;BME280_humidity;BME280_pressure;Samples;Min_cycle;Max_cycle;Signal;HPM_P1;HPM_P2
2021/06/03 00:01:04;;;;;;;9.20;8.60;;;21.50;61.90;;;;;;5056048;28;20233;-75
2021/06/03 00:03:30;;;;;;;5.93;5.53;;;21.60;63.40;;;;;;5055012;28;20174;-76
2021/06/03 00:06:00;;;;;;;5.63;5.23;;;21.60;63.30;;;;;;5055948;28;20403;-75
2021/06/03 00:08:28;;;;;;;5.97;5.57;;;21.70;64.10;;;;;;5055225;28;20478;-75
2021/06/03 00:11:05;;;;;;;5.20;4.90;;;21.60;63.40;;;;;;5055465;28;20408;-75
2021/06/03 00:13:33;;;;;;;5.30;4.87;;;21.60;64.70;;;;;;5054798;28;20408;-75
2021/06/03 00:16:01;;;;;;;5.33;4.93;;;21.70;65.20;;;;;;5055369;28;20462;-75
2021/06/03 00:18:27;;;;;;;5.00;4.73;;;21.70;65.70;;;;;;5054986;28;20455;-75
2021/06/03 00:20:55;;;;;;;6.30;6.00;;;21.70;65.10;;;;;;5055596;28;20425;-75
2021/06/03 00:23:21;;;;;;;5.00;4.70;;;21.70;64.70;;;;;;5054640;28;20405;-75
2021/06/03 00:25:47;;;;;;;7.67;6.83;;;21.60;64.70;;;;;;5055522;28;20404;-75
2021/06/03 00:28:12;;;;;;;5.83;5.53;;;21.70;66.50;;;;;;5055428;28;20500;-75
2021/06/03 00:30:38;;;;;;;5.13;4.83;;;21.60;65.50;;;;;;5054777;28;20436;-75
2021/06/03 00:33:04;;;;;;;5.70;5.30;;;21.70;66.80;;;;;;5055413;28;20173;-75
2021/06/03 00:35:30;;;;;;;5.60;5.20;;;21.70;66.40;;;;;;5054735;28;20173;-76
2021/06/03 00:37:56;;;;;;;7.17;6.77;;;21.70;66.10;;;;;;5055274;28;20249;-75
2021/06/03 00:40:22;;;;;;;7.77;7.27;;;21.70;66.80;;;;;;5054574;28;20217;-75
2021/06/03 00:42:48;;;;;;;6.07;5.73;;;21.70;67.00;;;;;;5055319;28;20178;-75
2021/06/03 00:45:17;;;;;;;10.80;9.90;;;21.70;67.40;;;;;;5055155;28;20742;-75
2021/06/03 00:47:43;;;;;;;9.77;8.97;;;21.70;69.00;;;;;;5054473;28;20439;-75
2021/06/03 00:50:16;;;;;;;7.87;7.30;;;21.70;70.80;;;;;;5054990;28;20419;-75
2021/06/03 00:52:42;;;;;;;7.13;6.53;;;21.70;72.90;;;;;;5054109;28;20389;-75
2021/06/03 00:55:09;;;;;;;7.17;6.67;;;21.70;73.40;;;;;;5054567;28;20773;-75
2021/06/03 00:57:35;;;;;;;7.20;6.70;;;21.70;74.60;;;;;;5054273;28;20540;-75
2021/06/03 01:00:04;;;;;;;9.23;8.50;;;21.60;74.70;;;;;;5054729;28;20478;-75
2021/06/03 01:02:30;;;;;;;14.00;12.70;;;21.50;75.10;;;;;;5054208;28;20416;-75
2021/06/03 01:04:55;;;;;;;16.67;14.30;;;21.50;74.10;;;;;;5054734;28;20991;-75
2021/06/03 01:07:21;;;;;;;18.30;16.57;;;21.50;73.90;;;;;;5037076;28;20261;-75
2021/06/03 01:09:59;;;;;;;18.70;15.70;;;21.40;76.10;;;;;;5054561;28;20260;-75
2021/06/03 01:12:32;;;;;;;16.33;14.77;;;21.40;74.50;;;;;;5054079;28;20173;-75
2021/06/03 01:15:01;;;;;;;17.03;15.50;;;21.30;75.10;;;;;;5054647;28;20404;-75
2021/06/03 01:17:27;;;;;;;14.90;13.40;;;21.30;75.40;;;;;;5053320;28;20962;-75
2021/06/03 01:19:53;;;;;;;13.67;12.37;;;21.30;77.10;;;;;;5054424;28;20509;-75
2021/06/03 01:22:41;;;;;;;11.70;10.80;;;21.20;76.10;;;;;;5054465;28;20640;-75
2021/06/03 01:25:11;;;;;;;10.70;9.80;;;21.20;76.10;;;;;;5039846;28;20455;-75
2021/06/03 01:27:37;;;;;;;8.20;7.50;;;21.10;75.90;;;;;;5053788;28;20483;-75
2021/06/03 01:30:06;;;;;;;8.70;8.10;;;21.00;73.10;;;;;;5054315;28;20420;-75
2021/06/03 01:32:35;;;;;;;8.00;7.30;;;21.00;73.20;;;;;;5053397;28;20466;-75
2021/06/03 01:35:01;;;;;;;7.37;6.87;;;21.00;72.00;;;;;;5054172;28;20451;-75
2021/06/03 01:37:27;;;;;;;7.83;7.03;;;21.00;73.50;;;;;;5053649;28;20868;-75
2021/06/03 01:39:53;;;;;;;7.33;6.83;;;21.00;74.60;;;;;;5053981;28;20447;-75
2021/06/03 01:42:20;;;;;;;7.30;6.77;;;21.00;74.80;;;;;;5054149;28;20446;-75
2021/06/03 01:44:47;;;;;;;7.37;6.73;;;21.00;74.70;;;;;;5053407;28;20409;-75
2021/06/03 01:47:13;;;;;;;8.10;7.30;;;21.00;76.20;;;;;;5053951;28;20487;-75
2021/06/03 01:49:41;;;;;;;7.93;7.20;;;21.00;76.20;;;;;;5053255;28;20408;-75
2021/06/03 01:52:08;;;;;;;6.97;6.50;;;21.00;75.90;;;;;;5053870;28;20763;-75
2021/06/03 01:54:34;;;;;;;7.80;7.20;;;20.90;75.50;;;;;;5052895;28;20392;-75
2021/06/03 01:57:02;;;;;;;6.37;5.93;;;20.90;75.50;;;;;;5053853;28;20895;-75
2021/06/03 01:59:28;;;;;;;6.53;6.13;;;20.90;75.60;;;;;;5053015;28;20458;-75
2021/06/03 02:01:54;;;;;;;6.67;6.17;;;20.90;74.70;;;;;;5053677;28;20408;-75
2021/06/03 02:04:19;;;;;;;6.70;6.20;;;20.90;74.50;;;;;;5053623;28;20180;-75
2021/06/03 02:06:45;;;;;;;6.90;6.40;;;20.80;73.60;;;;;;5052527;28;20474;-75
2021/06/03 02:09:12;;;;;;;6.60;6.00;;;20.80;75.30;;;;;;5053785;28;20265;-75
2021/06/03 02:11:44;;;;;;;6.70;6.30;;;20.70;73.80;;;;;;5052610;28;20440;-75
2021/06/03 02:14:13;;;;;;;6.40;6.00;;;20.60;74.00;;;;;;5053575;28;20403;-74
2021/06/03 02:17:03;;;;;;;6.47;6.00;;;20.50;74.50;;;;;;5031563;28;20453;-75
2021/06/03 02:20:03;;;;;;;5.73;5.33;;;20.50;76.00;;;;;;5032786;28;20453;-75
2021/06/03 02:22:30;;;;;;;6.70;6.20;;;20.60;78.10;;;;;;5025439;28;20424;-75
2021/06/03 02:24:56;;;;;;;5.60;5.23;;;20.60;80.40;;;;;;5033201;28;20405;-75
2021/06/03 02:27:22;;;;;;;6.97;6.40;;;20.70;81.60;;;;;;5033331;28;20437;-75
2021/06/03 02:29:49;;;;;;;6.20;5.70;;;20.70;82.80;;;;;;5032712;28;20449;-75
2021/06/03 02:32:16;;;;;;;6.53;5.97;;;20.70;83.90;;;;;;5033288;28;20182;-75
2021/06/03 02:34:44;;;;;;;8.20;7.50;;;20.70;84.40;;;;;;5032578;28;20405;-75
2021/06/03 02:37:15;;;;;;;7.13;6.63;;;20.60;85.40;;;;;;5033158;28;20417;-75
2021/06/03 02:39:41;;;;;;;5.90;5.40;;;20.70;85.50;;;;;;5032341;28;20461;-75
2021/06/03 02:42:08;;;;;;;6.30;5.90;;;20.70;84.60;;;;;;5032936;28;20459;-76
2021/06/03 02:44:35;;;;;;;6.13;5.80;;;20.60;84.20;;;;;;5032474;28;20560;-76
2021/06/03 02:47:02;;;;;;;6.00;5.67;;;20.60;83.90;;;;;;5033021;28;20755;-76
2021/06/03 02:49:28;;;;;;;6.60;6.07;;;20.60;85.80;;;;;;5032495;28;20405;-78
2021/06/03 02:51:54;;;;;;;5.90;5.50;;;20.60;86.40;;;;;;5033051;28;20417;-76
2021/06/03 02:54:20;;;;;;;5.73;5.33;;;20.60;86.10;;;;;;5033084;28;20181;-77
2021/06/03 02:56:46;;;;;;;7.97;7.47;;;20.60;85.70;;;;;;5032275;28;20175;-76
2021/06/03 02:59:11;;;;;;;7.63;7.00;;;20.70;85.60;;;;;;5032945;28;20484;-76
2021/06/03 03:01:37;;;;;;;6.43;6.10;;;20.70;85.60;;;;;;5032233;28;20524;-76
2021/06/03 03:04:03;;;;;;;6.80;6.30;;;20.70;86.50;;;;;;5032858;28;20976;-76
2021/06/03 03:06:29;;;;;;;6.60;6.10;;;20.70;85.90;;;;;;5032412;28;20177;-79
2021/06/03 03:08:55;;;;;;;6.70;6.20;;;20.70;87.50;;;;;;5032713;28;20401;-76
2021/06/03 03:11:20;;;;;;;6.30;5.70;;;20.60;86.10;;;;;;5033014;28;20224;-76
2021/06/03 03:13:47;;;;;;;6.47;6.07;;;20.60;85.70;;;;;;5032076;28;20182;-77
2021/06/03 03:16:13;;;;;;;6.90;6.40;;;20.60;86.40;;;;;;5037767;28;20240;-77
2021/06/03 03:18:38;;;;;;;6.67;6.17;;;20.60;87.40;;;;;;5051794;28;20440;-76
2021/06/03 03:21:05;;;;;;;6.53;6.20;;;20.60;87.70;;;;;;5052473;28;20232;-77
2021/06/03 03:23:31;;;;;;;7.37;6.87;;;20.60;87.90;;;;;;5033871;28;20173;-77
2021/06/03 03:25:57;;;;;;;7.53;7.00;;;20.50;87.30;;;;;;5052398;28;20419;-76
2021/06/03 03:28:23;;;;;;;6.03;5.70;;;20.50;86.60;;;;;;5052279;28;20268;-76
2021/06/03 03:30:49;;;;;;;5.87;5.20;;;20.50;87.60;;;;;;5051715;28;20253;-76
2021/06/03 03:33:16;;;;;;;5.90;5.50;;;20.50;87.10;;;;;;5052319;28;20494;-76
2021/06/03 03:35:46;;;;;;;5.93;5.53;;;20.40;85.70;;;;;;5051675;28;20185;-76
2021/06/03 03:38:12;;;;;;;5.60;5.23;;;20.40;86.40;;;;;;5052183;28;20423;-76
2021/06/03 03:40:38;;;;;;;5.37;5.07;;;20.50;85.80;;;;;;5051809;28;20867;-76
2021/06/03 03:43:03;;;;;;;5.40;5.10;;;20.40;85.40;;;;;;5052251;28;20499;-75
2021/06/03 03:45:29;;;;;;;5.90;5.50;;;20.50;85.20;;;;;;5052228;28;20518;-76
2021/06/03 03:47:55;;;;;;;6.13;5.60;;;20.50;84.80;;;;;;5051632;28;20182;-76
2021/06/03 03:50:21;;;;;;;6.20;5.80;;;20.60;85.00;;;;;;5052226;28;20427;-76
2021/06/03 03:52:48;;;;;;;5.10;4.90;;;20.60;86.20;;;;;;5051580;28;20265;-76
2021/06/03 03:55:15;;;;;;;5.47;5.17;;;20.70;88.00;;;;;;5052111;28;20412;-76
2021/06/03 03:57:43;;;;;;;5.67;5.37;;;20.70;89.00;;;;;;5051530;28;20458;-76
2021/06/03 04:00:19;;;;;;;5.10;4.80;;;20.70;88.10;;;;;;5052026;28;20547;-76
2021/06/03 04:02:45;;;;;;;6.50;6.10;;;20.60;88.80;;;;;;5034502;28;20419;-76
2021/06/03 04:05:12;;;;;;;6.00;5.60;;;20.60;88.50;;;;;;5052005;28;20497;-76
2021/06/03 04:07:38;;;;;;;5.77;5.47;;;20.60;89.70;;;;;;5051108;28;20771;-76
2021/06/03 04:10:13;;;;;;;6.00;5.70;;;20.50;89.50;;;;;;5051728;28;20762;-76
2021/06/03 04:12:39;;;;;;;6.00;5.50;;;20.50;89.80;;;;;;5051330;28;20495;-76
2021/06/03 04:15:07;;;;;;;5.50;5.20;;;20.50;90.00;;;;;;5051956;28;20487;-76
2021/06/03 04:17:33;;;;;;;5.57;5.17;;;20.50;90.90;;;;;;5051693;28;20452;-76
2021/06/03 04:19:58;;;;;;;6.10;5.60;;;20.40;90.50;;;;;;5051881;28;20506;-76
2021/06/03 04:22:24;;;;;;;5.90;5.50;;;20.40;91.20;;;;;;5051907;28;20416;-76
2021/06/03 04:24:50;;;;;;;5.43;5.13;;;20.40;90.80;;;;;;5051289;28;20201;-76
2021/06/03 04:27:16;;;;;;;6.20;5.60;;;20.40;90.90;;;;;;5051831;28;20800;-76
2021/06/03 04:29:42;;;;;;;6.00;5.60;;;20.40;91.00;;;;;;5052926;28;20178;-76
2021/06/03 04:32:09;;;;;;;5.77;5.47;;;20.40;91.20;;;;;;5037765;28;20205;-77
2021/06/03 04:34:35;;;;;;;5.23;4.93;;;20.40;91.70;;;;;;5054741;28;20499;-77
2021/06/03 04:37:00;;;;;;;5.93;5.53;;;20.30;91.80;;;;;;5055346;28;20868;-75
2021/06/03 04:39:27;;;;;;;7.93;7.33;;;20.30;92.40;;;;;;5055247;28;20534;-76
2021/06/03 04:41:52;;;;;;;8.30;7.60;;;20.30;92.00;;;;;;5054239;28;20242;-76
2021/06/03 04:44:18;;;;;;;7.10;6.50;;;20.20;91.40;;;;;;5054879;28;20412;-76
2021/06/03 04:46:44;;;;;;;5.90;5.50;;;20.20;91.60;;;;;;5054547;28;20229;-76
2021/06/03 04:49:10;;;;;;;6.70;5.70;;;20.20;91.80;;;;;;5055232;28;20189;-76
2021/06/03 04:51:38;;;;;;;6.73;6.13;;;20.20;91.70;;;;;;5054446;28;20260;-77
2021/06/03 04:54:05;;;;;;;6.50;6.00;;;20.30;91.60;;;;;;5055036;28;20170;-76
2021/06/03 04:56:32;;;;;;;6.63;6.23;;;20.40;91.80;;;;;;5055011;28;20920;-76
2021/06/03 04:58:57;;;;;;;7.50;7.00;;;20.40;90.60;;;;;;5054280;28;20448;-76
2021/06/03 05:01:23;;;;;;;7.30;6.80;;;20.50;90.60;;;;;;5054930;28;20466;-76
2021/06/03 05:03:49;;;;;;;5.17;4.87;;;20.50;90.80;;;;;;5054252;28;20182;-76
2021/06/03 05:06:15;;;;;;;5.10;4.80;;;20.60;90.90;;;;;;5054740;28;20406;-76
2021/06/03 05:08:40;;;;;;;4.90;4.70;;;20.60;90.60;;;;;;5054203;28;20201;-76
2021/06/03 05:11:06;;;;;;;6.10;5.70;;;20.60;90.60;;;;;;5036705;28;20178;-76
2021/06/03 05:13:32;;;;;;;6.27;5.87;;;20.60;90.70;;;;;;5054601;28;20177;-76
2021/06/03 05:15:59;;;;;;;5.73;5.33;;;20.70;90.60;;;;;;5053800;28;20218;-76
2021/06/03 05:18:25;;;;;;;5.50;5.10;;;20.80;90.40;;;;;;5036590;28;20206;-76
2021/06/03 05:20:51;;;;;;;7.37;6.77;;;20.80;90.20;;;;;;5053875;28;20436;-76
2021/06/03 05:23:17;;;;;;;5.60;5.30;;;20.80;90.20;;;;;;5054157;28;20178;-76
2021/06/03 05:25:44;;;;;;;5.50;5.20;;;20.90;90.10;;;;;;5053793;28;20166;-76
2021/06/03 05:28:10;;;;;;;5.07;4.73;;;21.00;90.30;;;;;;5054337;28;20408;-76
2021/06/03 05:30:36;;;;;;;5.20;4.90;;;21.00;90.30;;;;;;5054310;28;20415;-76
2021/06/03 05:33:02;;;;;;;5.17;4.87;;;21.00;90.60;;;;;;5053896;28;20864;-76
2021/06/03 05:35:28;;;;;;;5.50;5.10;;;21.00;90.60;;;;;;5054299;28;20196;-76
2021/06/03 05:37:54;;;;;;;5.40;5.10;;;21.10;90.20;;;;;;5053559;28;20483;-76
2021/06/03 05:40:22;;;;;;;6.40;6.00;;;21.00;90.30;;;;;;5035353;28;20735;-76
2021/06/03 05:42:49;;;;;;;6.03;5.50;;;21.10;90.50;;;;;;5053168;28;20407;-76
2021/06/03 05:45:15;;;;;;;5.50;5.20;;;21.10;90.40;;;;;;5053978;28;20923;-76
2021/06/03 05:47:42;;;;;;;5.77;5.07;;;21.20;90.60;;;;;;5053428;28;20802;-77
2021/06/03 05:50:12;;;;;;;5.00;4.70;;;21.30;90.90;;;;;;5053501;28;20938;-76
2021/06/03 05:52:38;;;;;;;4.90;4.60;;;21.30;90.80;;;;;;5036161;28;20412;-76
2021/06/03 05:55:06;;;;;;;4.67;4.43;;;21.20;90.60;;;;;;5053674;28;20446;-76
2021/06/03 05:57:32;;;;;;;5.10;4.57;;;21.30;90.90;;;;;;5053765;28;20408;-76
2021/06/03 05:59:57;;;;;;;5.53;5.10;;;21.40;91.20;;;;;;5052745;28;20958;-76
2021/06/03 06:02:31;;;;;;;5.73;5.23;;;21.50;91.00;;;;;;5053694;28;20169;-76
2021/06/03 06:07:41;;;;;;;5.20;4.70;;;21.60;91.20;;;;;;5053011;28;20416;-76
2021/06/03 06:10:08;;;;;;;6.10;5.70;;;21.60;91.20;;;;;;5053550;28;20426;-79
2021/06/03 06:12:34;;;;;;;5.20;4.90;;;21.60;90.80;;;;;;5053601;28;20744;-79
2021/06/03 06:15:00;;;;;;;5.03;4.73;;;21.70;91.00;;;;;;5035023;28;20913;-78
2021/06/03 06:17:25;;;;;;;5.03;4.73;;;21.70;91.60;;;;;;5052834;28;20312;-78
2021/06/03 06:19:51;;;;;;;4.73;4.53;;;21.60;91.50;;;;;;5052671;28;20204;-78
2021/06/03 06:22:17;;;;;;;5.73;5.33;;;21.70;91.40;;;;;;5053180;28;20178;-77
2021/06/03 06:24:46;;;;;;;6.27;5.87;;;21.70;91.70;;;;;;5052739;28;20178;-77
2021/06/03 06:27:11;;;;;;;5.33;5.03;;;21.90;91.00;;;;;;5053212;28;20630;-78
2021/06/03 06:29:37;;;;;;;5.93;5.43;;;21.90;91.50;;;;;;5035289;28;20431;-78
2021/06/03 06:32:03;;;;;;;5.77;5.27;;;22.00;91.90;;;;;;5052494;28;20174;-78
2021/06/03 06:34:29;;;;;;;5.53;5.23;;;22.10;91.60;;;;;;5053071;28;20176;-77
2021/06/03 06:36:54;;;;;;;5.03;4.60;;;22.10;91.10;;;;;;5052466;28;20408;-78
2021/06/03 06:39:20;;;;;;;5.63;5.33;;;22.10;91.70;;;;;;5052939;28;20205;-78
2021/06/03 06:41:46;;;;;;;5.60;5.13;;;22.20;91.80;;;;;;5052585;28;20564;-79
2021/06/03 06:44:13;;;;;;;5.80;5.50;;;22.20;91.60;;;;;;5052957;28;20622;-78
2021/06/03 06:46:39;;;;;;;7.00;6.50;;;22.20;92.40;;;;;;5052953;28;20190;-78
2021/06/03 06:49:05;;;;;;;5.63;5.23;;;22.20;92.00;;;;;;5052312;28;20757;-78
2021/06/03 06:51:31;;;;;;;6.93;6.43;;;22.20;92.10;;;;;;5034664;28;20173;-78
2021/06/03 06:53:57;;;;;;;5.77;5.37;;;22.30;92.40;;;;;;5052097;28;20396;-78
2021/06/03 06:56:23;;;;;;;6.20;5.77;;;22.40;93.40;;;;;;5052752;28;20420;-78
2021/06/03 06:58:49;;;;;;;7.57;6.97;;;22.60;92.70;;;;;;5052058;28;20485;-79
2021/06/03 07:01:14;;;;;;;6.27;5.87;;;22.70;92.40;;;;;;5052493;28;20174;-78
2021/06/03 07:03:40;;;;;;;6.87;6.47;;;22.90;92.60;;;;;;5052492;28;20174;-78
2021/06/03 07:06:06;;;;;;;6.50;6.00;;;22.90;93.30;;;;;;5052025;28;20259;-79
2021/06/03 07:08:32;;;;;;;7.00;6.60;;;23.10;92.10;;;;;;5052640;28;20204;-78
2021/06/03 07:10:57;;;;;;;6.53;6.03;;;23.20;91.80;;;;;;5033971;28;20202;-78
2021/06/03 07:13:23;;;;;;;7.60;5.97;;;23.40;91.60;;;;;;5034590;28;20188;-78
2021/06/03 07:15:49;;;;;;;6.70;6.30;;;23.60;92.50;;;;;;5051773;28;20177;-79
2021/06/03 07:18:14;;;;;;;7.60;7.00;;;23.80;92.30;;;;;;5052781;28;20532;-78
2021/06/03 07:20:40;;;;;;;8.47;7.90;;;23.90;91.20;;;;;;5052308;28;20221;-79
2021/06/03 07:23:06;;;;;;;6.80;6.30;;;23.90;91.00;;;;;;5034238;28;20209;-78
2021/06/03 07:25:35;;;;;;;10.53;9.67;;;24.00;91.40;;;;;;5052444;28;20205;-79
2021/06/03 07:28:01;;;;;;;7.40;6.90;;;24.10;90.70;;;;;;5051818;28;20427;-78
2021/06/03 07:30:29;;;;;;;7.37;6.87;;;24.10;90.80;;;;;;5052879;28;20455;-77
2021/06/03 07:32:56;;;;;;;7.90;7.20;;;24.20;91.40;;;;;;5051751;28;20412;-78
2021/06/03 07:35:23;;;;;;;7.57;7.00;;;24.30;91.40;;;;;;5034466;28;20495;-78
2021/06/03 07:37:49;;;;;;;6.73;6.33;;;24.30;92.10;;;;;;5051663;28;20408;-79
2021/06/03 07:40:22;;;;;;;37.20;31.03;;;24.20;92.00;;;;;;5052147;28;20471;-80
2021/06/03 07:42:50;;;;;;;201.27;156.00;;;24.20;92.20;;;;;;5052136;28;20462;-80
2021/06/03 07:45:18;;;;;;;57.33;51.13;;;24.20;92.70;;;;;;5052162;28;20966;-80
2021/06/03 07:47:44;;;;;;;47.97;42.90;;;24.20;92.40;;;;;;5052160;28;20440;-80
2021/06/03 07:50:12;;;;;;;12.60;11.37;;;24.20;92.20;;;;;;5051277;28;20454;-80
2021/06/03 07:52:38;;;;;;;13.33;12.00;;;24.20;92.50;;;;;;5034106;28;20420;-80
2021/06/03 07:55:06;;;;;;;13.53;12.43;;;24.10;92.50;;;;;;5051522;28;20408;-80
2021/06/03 07:57:32;;;;;;;28.10;25.27;;;24.00;93.20;;;;;;5034325;28;20561;-79
2021/06/03 07:59:58;;;;;;;8.73;8.07;;;24.00;93.00;;;;;;5051174;28;20547;-79
2021/06/03 08:02:24;;;;;;;20.13;18.17;;;24.00;93.70;;;;;;5051785;28;20416;-79
2021/06/03 08:04:50;;;;;;;8.23;7.53;;;24.10;92.90;;;;;;5053154;28;20173;-79
2021/06/03 08:07:16;;;;;;;8.90;8.10;;;24.20;93.70;;;;;;5038364;28;20582;-80
2021/06/03 08:09:44;;;;;;;8.90;6.60;;;24.30;93.80;;;;;;5055789;28;20174;-80
2021/06/03 08:12:11;;;;;;;8.03;7.33;;;24.40;94.10;;;;;;5055274;28;20422;-80
2021/06/03 08:14:37;;;;;;;7.93;7.33;;;24.50;93.80;;;;;;5038101;28;20459;-80
2021/06/03 08:17:03;;;;;;;9.63;8.93;;;24.70;93.70;;;;;;5055046;28;20460;-80
2021/06/03 08:19:28;;;;;;;6.57;6.07;;;24.80;92.20;;;;;;5055235;28;20280;-80
2021/06/03 08:21:54;;;;;;;8.83;8.13;;;24.80;93.40;;;;;;5054998;28;20535;-80
2021/06/03 08:24:20;;;;;;;8.10;7.60;;;24.90;92.80;;;;;;5055493;28;20188;-80
2021/06/03 08:26:50;;;;;;;7.57;7.07;;;24.90;93.20;;;;;;5055374;28;20170;-80
2021/06/03 08:29:19;;;;;;;7.20;6.70;;;24.90;93.20;;;;;;5055592;28;20166;-80
2021/06/03 08:31:47;;;;;;;12.97;11.87;;;25.00;92.70;;;;;;5055447;28;20738;-81
2021/06/03 08:34:12;;;;;;;9.20;8.50;;;25.00;91.90;;;;;;5037074;28;20404;-81
2021/06/03 08:36:39;;;;;;;10.13;8.50;;;25.00;92.60;;;;;;5055600;28;20474;-80
2021/06/03 08:39:06;;;;;;;8.33;7.80;;;25.00;92.70;;;;;;5054632;28;20201;-80
2021/06/03 08:41:35;;;;;;;7.80;7.30;;;25.10;91.60;;;;;;5055405;28;20491;-80
2021/06/03 08:44:03;;;;;;;9.10;8.30;;;25.10;92.80;;;;;;5054342;28;20412;-80
2021/06/03 08:46:29;;;;;;;10.23;9.20;;;25.20;94.40;;;;;;5055183;28;20421;-80
2021/06/03 08:48:55;;;;;;;23.83;21.57;;;25.30;93.10;;;;;;5054513;28;20420;-80
2021/06/03 08:51:20;;;;;;;50.83;45.47;;;25.40;92.90;;;;;;5055048;28;20170;-80
2021/06/03 08:53:49;;;;;;;298.30;267.37;;;25.40;92.30;;;;;;5054802;28;20209;-80
2021/06/03 08:56:18;;;;;;;17.47;15.87;;;25.40;92.10;;;;;;5055000;28;20208;-80
2021/06/03 08:59:02;;;;;;;11.83;10.83;;;25.40;91.50;;;;;;5054557;28;20802;-80
2021/06/03 09:01:30;;;;;;;13.57;12.33;;;25.40;92.40;;;;;;5055124;28;20400;-80
2021/06/03 09:03:57;;;;;;;8.43;7.80;;;25.30;91.80;;;;;;5053947;28;20927;-81
2021/06/03 09:06:23;;;;;;;11.17;10.30;;;25.30;91.90;;;;;;5054855;28;20412;-80
2021/06/03 09:08:58;;;;;;;11.13;10.23;;;25.30;92.50;;;;;;5054768;28;20496;-80
2021/06/03 09:11:32;;;;;;;8.20;7.63;;;25.20;92.70;;;;;;5054769;28;20603;-76
2021/06/03 09:14:03;;;;;;;7.47;6.77;;;25.20;93.30;;;;;;5053876;28;20835;-77
2021/06/03 09:16:34;;;;;;;7.27;6.77;;;25.20;93.80;;;;;;5054331;28;20459;-78
2021/06/03 09:19:06;;;;;;;7.50;6.90;;;25.20;92.90;;;;;;5054102;28;20448;-80
2021/06/03 09:21:46;;;;;;;6.97;6.47;;;25.20;92.00;;;;;;5054456;28;20553;-77
2021/06/03 09:24:14;;;;;;;7.00;6.50;;;25.10;92.20;;;;;;5053972;28;20881;-77
2021/06/03 09:26:49;;;;;;;7.37;6.87;;;25.00;91.90;;;;;;5054428;28;20407;-77
2021/06/03 09:29:26;;;;;;;7.27;6.67;;;25.00;91.90;;;;;;5053540;28;20407;-77
2021/06/03 09:32:07;;;;;;;7.03;6.43;;;24.90;92.40;;;;;;5053666;28;20411;-77
2021/06/03 09:34:34;;;;;;;8.97;8.10;;;24.90;92.20;;;;;;5054351;28;20765;-77
2021/06/03 09:37:03;;;;;;;9.23;8.23;;;24.90;92.30;;;;;;5053621;28;20419;-77
2021/06/03 09:39:31;;;;;;;7.30;6.80;;;24.80;92.40;;;;;;5054121;28;20539;-77
2021/06/03 09:42:03;;;;;;;6.57;6.17;;;24.80;92.50;;;;;;5053718;28;20413;-76
2021/06/03 09:44:34;;;;;;;7.83;7.10;;;24.70;92.20;;;;;;5054107;28;20499;-76
2021/06/03 09:47:04;;;;;;;7.13;6.67;;;24.60;92.60;;;;;;5053184;28;20805;-77
2021/06/03 09:49:39;;;;;;;7.20;6.47;;;24.50;92.60;;;;;;5053973;28;20409;-76
2021/06/03 09:52:05;;;;;;;7.13;6.43;;;24.50;92.80;;;;;;5052496;28;20415;-77
2021/06/03 09:54:32;;;;;;;7.37;6.87;;;24.40;92.80;;;;;;5053820;28;20929;-78
2021/06/03 09:57:07;;;;;;;7.00;6.60;;;24.40;92.60;;;;;;5052649;28;20416;-77
2021/06/03 09:59:41;;;;;;;7.07;6.47;;;24.50;93.00;;;;;;5048634;28;20597;-78
2021/06/03 10:02:19;;;;;;;8.83;6.60;;;24.40;93.20;;;;;;5038393;28;20495;-77
2021/06/03 10:04:48;;;;;;;7.60;7.10;;;24.50;93.30;;;;;;5048643;28;20415;-77
2021/06/03 10:07:28;;;;;;;7.20;6.60;;;24.40;93.60;;;;;;5052126;28;20506;-77
2021/06/03 10:10:08;;;;;;;6.87;6.47;;;24.40;93.00;;;;;;5052899;28;20501;-77
2021/06/03 10:12:42;;;;;;;6.40;6.00;;;24.30;92.80;;;;;;5053258;28;20416;-77
2021/06/03 10:15:13;;;;;;;6.27;5.77;;;24.40;92.50;;;;;;5052724;28;20814;-77
2021/06/03 10:17:51;;;;;;;6.27;5.87;;;24.40;92.70;;;;;;5053430;28;20535;-77
2021/06/03 10:20:42;;;;;;;6.83;6.27;;;24.40;93.10;;;;;;5052084;28;20452;-77
2021/06/03 10:23:24;;;;;;;7.17;6.57;;;24.50;93.30;;;;;;5051714;28;20436;-77
2021/06/03 10:25:55;;;;;;;7.07;6.50;;;24.60;93.20;;;;;;5053375;28;20451;-77
2021/06/03 10:28:21;;;;;;;7.00;6.50;;;24.70;93.80;;;;;;5052954;28;20404;-77
2021/06/03 10:30:52;;;;;;;7.30;6.77;;;24.70;93.50;;;;;;5053048;28;20408;-77
2021/06/03 10:33:23;;;;;;;6.13;5.73;;;24.80;92.60;;;;;;5052563;28;20278;-77
2021/06/03 10:35:52;;;;;;;6.60;6.20;;;24.90;92.90;;;;;;5052851;28;20411;-76
2021/06/03 10:38:19;;;;;;;6.23;5.87;;;25.00;92.90;;;;;;5052392;28;20404;-77
2021/06/03 10:40:48;;;;;;;6.77;6.30;;;25.10;92.80;;;;;;5052739;28;20464;-77
2021/06/03 10:43:14;;;;;;;6.47;6.07;;;25.20;92.50;;;;;;5052277;28;20427;-78
2021/06/03 10:45:41;;;;;;;6.13;5.70;;;25.30;92.60;;;;;;5052939;28;20401;-77
2021/06/03 10:48:08;;;;;;;6.90;6.23;;;25.30;92.30;;;;;;5051967;28;20712;-78
2021/06/03 10:50:43;;;;;;;6.30;5.70;;;25.30;91.80;;;;;;5052783;28;20896;-77
2021/06/03 10:53:12;;;;;;;6.90;6.47;;;25.40;92.30;;;;;;5052253;28;20395;-77
2021/06/03 10:55:43;;;;;;;6.93;6.50;;;25.40;92.70;;;;;;5052539;28;20409;-77
2021/06/03 10:58:11;;;;;;;7.47;6.80;;;25.50;92.40;;;;;;5034455;28;20444;-78
2021/06/03 11:00:47;;;;;;;7.00;6.40;;;25.50;92.80;;;;;;5052883;28;20969;-77
2021/06/03 11:03:16;;;;;;;7.70;6.97;;;25.60;93.00;;;;;;5051988;28;20410;-77
2021/06/03 11:05:45;;;;;;;6.23;5.90;;;25.50;92.80;;;;;;5052898;28;20922;-77
2021/06/03 11:08:32;;;;;;;7.10;6.50;;;25.50;92.90;;;;;;5051905;28;20753;-79
2021/06/03 11:11:16;;;;;;;7.10;6.60;;;25.60;93.70;;;;;;5052173;28;20412;-78
2021/06/03 11:13:47;;;;;;;6.33;5.97;;;25.60;92.80;;;;;;5052621;28;20393;-80
2021/06/03 11:16:24;;;;;;;8.07;7.47;;;25.50;92.70;;;;;;5051613;28;20464;-77
2021/06/03 11:18:50;;;;;;;7.47;6.87;;;25.50;92.80;;;;;;5034645;28;20805;-77
2021/06/03 11:21:33;;;;;;;7.73;7.23;;;25.50;92.70;;;;;;5051865;28;20408;-79
2021/06/03 11:24:09;;;;;;;7.70;7.00;;;25.50;92.60;;;;;;5051794;28;20166;-79
2021/06/03 11:26:41;;;;;;;7.53;7.10;;;25.60;92.90;;;;;;5052347;28;20753;-80
2021/06/03 11:29:22;;;;;;;8.23;7.60;;;25.60;92.90;;;;;;5051642;28;20439;-79
2021/06/03 11:31:51;;;;;;;8.33;7.73;;;25.60;92.90;;;;;;5052374;28;20408;-78
2021/06/03 11:34:23;;;;;;;8.87;8.17;;;25.60;92.50;;;;;;5051780;28;20420;-79
2021/06/03 11:37:01;;;;;;;8.83;8.03;;;25.60;92.90;;;;;;5052292;28;20404;-79
2021/06/03 11:39:32;;;;;;;8.10;7.50;;;25.50;93.60;;;;;;5055338;28;20444;-77
2021/06/03 11:42:26;;;;;;;8.43;7.83;;;25.50;92.00;;;;;;5038138;28;20485;-78
2021/06/03 11:45:11;;;;;;;8.20;7.60;;;25.50;92.70;;;;;;5056327;28;20404;-78
2021/06/03 11:47:37;;;;;;;8.50;7.90;;;25.50;92.60;;;;;;5056363;28;20498;-78
2021/06/03 11:50:27;;;;;;;8.53;7.93;;;25.50;92.10;;;;;;5055465;28;20458;-79
2021/06/03 11:52:52;;;;;;;7.27;6.87;;;25.60;92.10;;;;;;5037888;28;20181;-78
2021/06/03 11:55:37;;;;;;;8.50;7.87;;;25.60;92.20;;;;;;5055483;28;20469;-79
2021/06/03 11:58:26;;;;;;;7.83;7.23;;;25.60;92.50;;;;;;5055093;28;20219;-78
2021/06/03 12:01:05;;;;;;;8.20;7.70;;;25.60;93.00;;;;;;5056036;28;20416;-78
2021/06/03 12:03:41;;;;;;;7.73;7.23;;;25.70;92.60;;;;;;5056177;28;20456;-77
2021/06/03 12:06:36;;;;;;;8.13;7.63;;;25.60;92.20;;;;;;5055447;28;20899;-78
2021/06/03 12:09:15;;;;;;;6.97;6.43;;;25.60;92.40;;;;;;5055386;28;20719;-80
2021/06/03 12:11:42;;;;;;;6.37;5.97;;;25.60;92.20;;;;;;5056133;28;20407;-79
2021/06/03 12:14:19;;;;;;;6.20;5.80;;;25.70;92.10;;;;;;5055247;28;20416;-79
2021/06/03 12:16:53;;;;;;;6.17;5.77;;;25.70;92.20;;;;;;5055857;28;20464;-79
2021/06/03 12:19:30;;;;;;;6.10;5.70;;;25.70;91.30;;;;;;5055187;28;20431;-79
2021/06/03 12:22:02;;;;;;;5.77;5.43;;;25.70;90.80;;;;;;5055345;28;20506;-78
2021/06/03 12:24:43;;;;;;;5.67;5.27;;;25.70;91.00;;;;;;5055841;28;20412;-78
2021/06/03 12:27:21;;;;;;;5.97;5.57;;;25.70;90.80;;;;;;5054932;28;20811;-79
2021/06/03 12:29:48;;;;;;;7.10;6.50;;;25.80;92.00;;;;;;5037963;28;20420;-77
2021/06/03 12:32:14;;;;;;;6.13;5.53;;;25.80;91.00;;;;;;5054823;28;20945;-77
2021/06/03 12:34:39;;;;;;;6.17;5.77;;;25.80;91.10;;;;;;5055443;28;20404;-77
2021/06/03 12:37:25;;;;;;;5.43;5.13;;;25.90;91.10;;;;;;5054773;28;20409;-78
2021/06/03 12:39:51;;;;;;;7.17;6.70;;;25.90;91.40;;;;;;5037695;28;20559;-77
2021/06/03 12:42:22;;;;;;;6.00;5.60;;;26.00;90.90;;;;;;5036907;28;20419;-77
2021/06/03 12:45:09;;;;;;;5.13;4.93;;;26.00;90.00;;;;;;5055265;28;20412;-78
2021/06/03 12:47:37;;;;;;;5.20;4.90;;;26.10;90.20;;;;;;5055204;28;20400;-79
2021/06/03 12:50:29;;;;;;;5.93;5.40;;;26.20;89.70;;;;;;5054414;28;20428;-79
2021/06/03 12:52:55;;;;;;;5.63;5.30;;;26.20;88.00;;;;;;5051364;28;20424;-79
2021/06/03 12:55:23;;;;;;;5.07;4.70;;;26.20;89.30;;;;;;5054230;28;20889;-80
2021/06/03 12:57:52;;;;;;;5.00;4.70;;;26.20;87.00;;;;;;5054922;28;20197;-79